Crickhowell, United Kingdom
Current Conditions -  °F | °C
As of 1:20 AM on Thursday 27 Nov 2014 (Local Time) from EGFF Reporting Station
Haze Haze  
Wind Chill: 45°   Ceiling: 600
Heat Index: 45°   Visibility: 0.81mi
Dew Point: 45°   Wind: 3mph
Humidity: 100%   Direction: 40°NE
Pressure: 29.71"   Gusts: NA
Location:  51.86°N, 3.14°W
Report Text: EGFF 270120Z 04003KT 1300 R12/P1500 BR BKN006 OVC022 07/07 Q1006
Loading
Personal Weather Stations






























Interactive Weather Map New forecast layout! Learn more

10-Day Weather Forecast

Advertisements
Track Severe Weather on mobile